createdAt,value
2019-03-23T00:02:58.134Z,23.20
2019-03-23T00:08:04.458Z,23.20
2019-03-23T00:13:11.334Z,23.20
2019-03-23T00:18:18.329Z,23.20
2019-03-23T00:23:24.766Z,23.20
2019-03-23T00:28:31.602Z,23.20
2019-03-23T00:33:38.447Z,23.10
2019-03-23T00:38:44.961Z,23.10
2019-03-23T00:43:53.007Z,23.10
2019-03-23T00:48:59.429Z,23.10
2019-03-23T00:54:06.391Z,23.10
2019-03-23T00:59:13.278Z,23.10
2019-03-23T01:04:19.812Z,23.00
2019-03-23T01:09:26.071Z,23.10
2019-03-23T01:14:32.558Z,23.10
2019-03-23T01:19:39.989Z,23.00
2019-03-23T01:24:46.029Z,23.00
2019-03-23T01:29:52.253Z,23.00
2019-03-23T01:34:58.674Z,23.00
2019-03-23T01:40:04.454Z,23.00
2019-03-23T01:45:11.502Z,23.00
2019-03-23T01:50:17.694Z,23.00
2019-03-23T01:55:24.327Z,23.00
2019-03-23T02:00:30.843Z,23.00
2019-03-23T02:05:37.209Z,23.00
2019-03-23T02:10:43.958Z,22.90
2019-03-23T02:15:50.178Z,23.00
2019-03-23T02:20:56.529Z,23.00
2019-03-23T02:26:02.542Z,23.00
2019-03-23T02:31:08.979Z,22.90
2019-03-23T02:36:15.346Z,23.00
2019-03-23T02:41:21.822Z,22.90
2019-03-23T02:46:27.936Z,22.90
2019-03-23T02:51:34.461Z,22.90
2019-03-23T02:56:40.748Z,22.90
2019-03-23T03:01:47.331Z,22.90
2019-03-23T03:06:53.979Z,22.90
2019-03-23T03:12:00.519Z,22.90
2019-03-23T03:17:06.779Z,22.80
2019-03-23T03:22:13.064Z,22.80
2019-03-23T03:27:19.277Z,22.90
2019-03-23T03:32:25.749Z,22.80
2019-03-23T03:37:32.279Z,22.80
2019-03-23T03:42:38.840Z,22.80
2019-03-23T03:47:45.409Z,22.80
2019-03-23T03:52:51.898Z,22.80
2019-03-23T03:57:58.417Z,22.80
2019-03-23T04:03:04.879Z,22.70
2019-03-23T04:08:12.217Z,22.70
2019-03-23T04:13:18.833Z,22.70
2019-03-23T04:18:25.078Z,22.70
2019-03-23T04:23:31.500Z,22.70
2019-03-23T04:28:37.914Z,22.70
2019-03-23T04:33:44.240Z,22.70
2019-03-23T04:38:50.798Z,22.70
2019-03-23T04:43:57.269Z,22.60
2019-03-23T04:49:03.597Z,22.60
2019-03-23T04:54:09.989Z,22.60
2019-03-23T04:59:16.440Z,22.60
2019-03-23T05:04:23.029Z,22.60
2019-03-23T05:09:29.568Z,22.60
2019-03-23T05:14:36.350Z,22.50
2019-03-23T05:19:42.650Z,22.60
2019-03-23T05:24:49.458Z,22.50
2019-03-23T05:29:55.797Z,22.60
2019-03-23T05:35:02.809Z,22.50
2019-03-23T05:40:09.369Z,22.50
2019-03-23T05:45:15.850Z,22.50
2019-03-23T05:50:23.578Z,22.50
2019-03-23T05:55:29.818Z,22.50
2019-03-23T06:00:36.887Z,22.50
2019-03-23T06:05:43.303Z,22.40
2019-03-23T06:10:49.769Z,22.40
2019-03-23T06:15:56.334Z,22.40
2019-03-23T06:21:02.738Z,22.40
2019-03-23T06:26:09.189Z,22.40
2019-03-23T06:31:15.552Z,22.40
2019-03-23T06:36:22.139Z,22.40
2019-03-23T06:41:28.878Z,22.40
2019-03-23T06:46:35.529Z,22.40
2019-03-23T06:51:41.799Z,22.40
2019-03-23T06:56:48.118Z,22.40
2019-03-23T07:01:54.558Z,22.40
2019-03-23T07:07:00.991Z,22.40
2019-03-23T07:12:07.398Z,22.40
2019-03-23T07:17:13.900Z,22.40
2019-03-23T07:22:20.338Z,22.40
2019-03-23T07:27:26.618Z,22.40
2019-03-23T07:32:33.010Z,22.40
2019-03-23T07:37:39.418Z,22.40
2019-03-23T07:42:46.068Z,22.40
2019-03-23T07:47:52.387Z,22.40
2019-03-23T07:52:58.610Z,22.40
2019-03-23T07:58:05.218Z,22.40
2019-03-23T08:03:11.658Z,22.40
2019-03-23T08:08:18.749Z,22.50
2019-03-23T08:13:25.246Z,22.40
2019-03-23T08:18:31.830Z,22.40
2019-03-23T08:23:38.078Z,22.40
2019-03-23T08:28:44.758Z,22.40
2019-03-23T08:33:52.071Z,22.40
2019-03-23T08:38:58.369Z,22.40
2019-03-23T08:44:04.670Z,22.40
2019-03-23T08:49:11.019Z,22.40
2019-03-23T08:54:17.278Z,22.40
2019-03-23T08:59:23.369Z,22.40
2019-03-23T09:04:29.899Z,22.40
2019-03-23T09:09:36.866Z,22.40
2019-03-23T09:14:43.639Z,22.40
2019-03-23T09:19:50.019Z,22.40
2019-03-23T09:24:57.014Z,22.40
2019-03-23T09:30:03.940Z,22.40
2019-03-23T09:35:10.567Z,22.50
2019-03-23T09:40:17.768Z,22.50
2019-03-23T09:45:24.422Z,22.50
2019-03-23T09:50:30.789Z,22.50
2019-03-23T09:55:37.518Z,22.50
2019-03-23T10:00:44.054Z,22.50
2019-03-23T10:05:50.549Z,22.50
2019-03-23T10:10:57.279Z,22.50
2019-03-23T10:16:03.638Z,22.60
2019-03-23T10:21:10.038Z,22.60
2019-03-23T10:26:16.829Z,22.60
2019-03-23T10:31:23.229Z,22.60
2019-03-23T10:36:29.579Z,22.60
2019-03-23T10:41:35.706Z,22.60
2019-03-23T10:46:42.195Z,22.60
2019-03-23T10:51:48.587Z,22.60
2019-03-23T10:56:55.366Z,22.60
2019-03-23T11:02:01.869Z,22.60
2019-03-23T11:07:08.358Z,22.60
2019-03-23T11:12:14.777Z,22.60
2019-03-23T11:17:21.357Z,22.50
2019-03-23T11:22:28.218Z,22.30
2019-03-23T11:27:34.739Z,22.10
2019-03-23T11:32:41.163Z,22.00
2019-03-23T11:37:48.042Z,21.90
2019-03-23T11:42:54.730Z,21.80
2019-03-23T11:48:00.569Z,21.70
2019-03-23T11:53:07.138Z,21.70
2019-03-23T11:58:13.658Z,21.60
2019-03-23T12:03:21.769Z,21.60
2019-03-23T12:08:28.858Z,21.60
2019-03-23T12:13:35.258Z,21.60
2019-03-23T12:18:41.897Z,21.60
2019-03-23T12:23:48.609Z,21.60
2019-03-23T12:28:55.179Z,21.70
2019-03-23T12:34:02.197Z,21.70
2019-03-23T12:39:09.029Z,21.70
2019-03-23T12:44:15.927Z,21.70
2019-03-23T12:49:22.606Z,21.70
2019-03-23T12:54:29.110Z,21.80
2019-03-23T12:59:35.897Z,21.80
2019-03-23T13:04:42.907Z,21.80
2019-03-23T13:09:49.982Z,21.80
2019-03-23T13:14:56.779Z,21.90
2019-03-23T13:20:03.384Z,21.90
2019-03-23T13:25:10.800Z,21.90
2019-03-23T13:30:17.449Z,21.90
2019-03-23T13:35:24.030Z,21.90
2019-03-23T13:40:31.169Z,21.90
2019-03-23T13:45:42.673Z,21.90
2019-03-23T13:50:46.829Z,22.00
2019-03-23T13:55:53.329Z,22.00
2019-03-23T14:01:00.749Z,22.10
2019-03-23T14:06:07.449Z,22.10
2019-03-23T14:11:13.788Z,22.10
2019-03-23T14:16:20.438Z,22.20
2019-03-23T14:21:26.839Z,22.20
2019-03-23T14:26:33.270Z,22.20
2019-03-23T14:31:39.838Z,22.30
2019-03-23T14:36:46.598Z,22.30
2019-03-23T14:41:52.689Z,22.40
2019-03-23T14:47:17.858Z,22.40
2019-03-23T14:52:24.118Z,22.50
2019-03-23T14:57:30.509Z,22.50
2019-03-23T15:02:36.897Z,22.50
2019-03-23T15:07:43.418Z,22.50
2019-03-23T15:12:50.011Z,22.50
2019-03-23T15:17:56.649Z,22.50
2019-03-23T15:23:03.387Z,22.60
2019-03-23T15:28:09.308Z,22.60
2019-03-23T15:33:15.843Z,22.60
2019-03-23T15:38:22.696Z,22.60
2019-03-23T15:43:28.938Z,22.60
2019-03-23T15:48:35.319Z,22.70
2019-03-23T15:53:41.680Z,22.70
2019-03-23T15:58:48.047Z,22.70
2019-03-23T16:03:54.539Z,22.80
2019-03-23T16:09:00.968Z,22.80
2019-03-23T16:14:07.418Z,22.80
2019-03-23T16:19:13.799Z,22.80
2019-03-23T16:24:20.178Z,22.80
2019-03-23T16:29:26.478Z,22.80
2019-03-23T16:34:32.762Z,22.90
2019-03-23T16:39:39.139Z,22.90
2019-03-23T16:44:45.487Z,22.90
2019-03-23T16:49:51.971Z,22.90
2019-03-23T16:54:58.771Z,22.90
2019-03-23T17:00:05.999Z,22.90
2019-03-23T17:05:12.933Z,22.90
2019-03-23T17:10:19.178Z,22.80
2019-03-23T17:15:25.821Z,22.80
2019-03-23T17:20:32.310Z,22.70
2019-03-23T17:25:38.559Z,22.70
2019-03-23T17:30:44.685Z,22.70
2019-03-23T17:35:51.046Z,22.80
2019-03-23T17:40:57.159Z,22.70
2019-03-23T17:46:04.008Z,22.80
2019-03-23T17:51:10.340Z,22.80
2019-03-23T17:56:16.853Z,22.80
2019-03-23T18:01:23.320Z,22.90
2019-03-23T18:06:29.649Z,22.90
2019-03-23T18:11:36.067Z,22.90
2019-03-23T18:16:42.448Z,23.00
2019-03-23T18:21:48.970Z,23.00
2019-03-23T18:26:58.374Z,23.10
2019-03-23T18:32:14.389Z,23.10
2019-03-23T18:37:21.019Z,23.20
2019-03-23T18:42:27.809Z,23.20
2019-03-23T18:47:43.499Z,23.20
2019-03-23T18:52:50.010Z,23.20
2019-03-23T18:57:58.250Z,23.20
2019-03-23T19:03:20.133Z,23.20
2019-03-23T19:08:26.406Z,23.30
2019-03-23T19:13:37.723Z,23.30
2019-03-23T19:18:40.810Z,23.20
2019-03-23T19:23:47.310Z,23.30
2019-03-23T19:28:54.069Z,23.30
2019-03-23T19:34:00.499Z,23.30
2019-03-23T19:39:09.400Z,23.30
2019-03-23T19:44:16.853Z,23.30
2019-03-23T19:49:23.121Z,23.20
2019-03-23T19:54:29.469Z,23.20
2019-03-23T19:59:35.910Z,23.20
2019-03-23T20:04:42.378Z,23.30
2019-03-23T20:09:49.476Z,23.20
2019-03-23T20:14:56.078Z,23.20
2019-03-23T20:20:03.698Z,23.30
2019-03-23T20:25:10.409Z,23.30
2019-03-23T20:30:17.099Z,23.20
2019-03-23T20:35:23.819Z,23.30
2019-03-23T20:40:30.398Z,23.30
2019-03-23T20:45:37.439Z,23.30
2019-03-23T20:50:44.299Z,23.30
2019-03-23T20:55:51.409Z,23.30
2019-03-23T21:00:59.107Z,23.30
2019-03-23T21:06:05.570Z,23.30
2019-03-23T21:11:13.697Z,23.30
2019-03-23T21:16:21.460Z,23.40
2019-03-23T21:21:28.898Z,23.40
2019-03-23T21:26:35.157Z,23.40
2019-03-23T21:31:41.559Z,23.30
2019-03-23T21:36:48.458Z,23.40
2019-03-23T21:41:56.129Z,23.40
2019-03-23T21:47:03.182Z,23.40
2019-03-23T21:52:09.538Z,23.30
2019-03-23T21:57:16.380Z,23.40
2019-03-23T22:02:23.678Z,23.30
2019-03-23T22:07:30.887Z,23.30
2019-03-23T22:12:37.989Z,23.30
2019-03-23T22:17:44.967Z,23.40
2019-03-23T22:22:51.378Z,23.30
2019-03-23T22:27:59.020Z,23.30
2019-03-23T22:33:05.598Z,23.30
2019-03-23T22:38:12.118Z,23.30
2019-03-23T22:43:19.397Z,23.30
2019-03-23T22:48:25.781Z,23.20
2019-03-23T22:53:32.755Z,23.20
2019-03-23T22:58:39.676Z,23.20
2019-03-23T23:03:46.189Z,23.20
2019-03-23T23:08:52.898Z,23.30
2019-03-23T23:13:59.349Z,23.30
2019-03-23T23:19:05.809Z,23.20
2019-03-23T23:24:12.129Z,23.20
2019-03-23T23:29:18.912Z,23.20
2019-03-23T23:34:25.658Z,23.20
2019-03-23T23:39:31.938Z,23.20
2019-03-23T23:44:38.430Z,23.20
2019-03-23T23:49:44.869Z,23.20
2019-03-23T23:54:51.381Z,23.20
2019-03-23T23:59:58.198Z,23.20
